Time;durP1;ratioP1;P1;durP2;ratioP2;P2;SDS_P1;SDS_P2;PMS_P1;PMS_P2;Temp;Humidity;BMP_temperature;BMP_pressure;BME280_temperature;BME280_humidity;BME280_pressure;Samples;Min_cycle;Max_cycle;Signal;HPM_P1;HPM_P2
2023/01/14 00:02:31;;;;;;;2.57;1.33;;;5.10;99.90;4.50;99336;;;;560820;252;24136;-76
2023/01/14 00:04:54;;;;;;;5.97;2.17;;;5.00;99.90;4.40;99353;;;;547445;255;35538;-80
2023/01/14 00:07:22;;;;;;;1.30;1.00;;;5.00;99.90;4.40;99348;;;;562933;250;24154;-78
2023/01/14 00:09:51;;;;;;;2.17;1.30;;;4.90;99.90;4.40;99344;;;;573197;250;24139;-77
2023/01/14 00:12:24;;;;;;;2.23;1.50;;;4.90;99.90;4.40;99347;;;;564224;255;24182;-76
2023/01/14 00:14:56;;;;;;;1.17;1.17;;;4.90;99.90;4.30;99351;;;;554016;255;24172;-78
2023/01/14 00:17:20;;;;;;;3.63;1.33;;;4.90;99.90;4.30;99354;;;;553431;255;24204;-77
2023/01/14 00:19:48;;;;;;;3.27;1.57;;;4.90;99.90;4.30;99358;;;;561988;255;24165;-76
2023/01/14 00:22:20;;;;;;;2.20;1.50;;;4.90;99.90;4.40;99350;;;;563912;250;24145;-76
2023/01/14 00:24:44;;;;;;;0.83;0.80;;;4.90;99.90;4.50;99347;;;;561976;255;24152;-78
2023/01/14 00:27:12;;;;;;;2.63;1.30;;;5.00;99.90;4.60;99349;;;;551833;255;24159;-76
2023/01/14 00:29:40;;;;;;;1.93;1.00;;;5.20;99.90;4.80;99357;;;;565733;249;24126;-76
2023/01/14 00:32:08;;;;;;;2.85;1.90;;;5.30;99.90;4.90;99360;;;;557411;249;35277;-78
2023/01/14 00:34:38;;;;;;;3.10;1.30;;;5.40;99.90;5.00;99364;;;;565743;249;24094;-79
2023/01/14 00:37:07;;;;;;;7.00;1.33;;;5.50;99.90;5.10;99354;;;;565631;249;24102;-77
2023/01/14 00:39:36;;;;;;;1.80;1.00;;;5.70;99.90;5.20;99359;;;;574634;245;24136;-78
2023/01/14 00:42:03;;;;;;;7.83;1.00;;;5.70;99.90;5.20;99355;;;;565933;249;24154;-78
2023/01/14 00:44:31;;;;;;;1.30;1.10;;;5.80;99.90;5.30;99352;;;;565978;249;24134;-78
2023/01/14 00:46:58;;;;;;;3.60;1.47;;;5.90;99.90;5.40;99365;;;;562839;249;24132;-75
2023/01/14 00:49:26;;;;;;;1.37;1.27;;;5.90;99.90;5.40;99369;;;;565933;249;24110;-79
2023/01/14 00:51:54;;;;;;;2.63;1.17;;;6.00;99.90;5.40;99364;;;;565982;249;24116;-79
2023/01/14 00:54:22;;;;;;;3.37;1.17;;;6.00;99.90;5.50;99367;;;;565950;249;24167;-78
2023/01/14 00:56:51;;;;;;;3.12;1.50;;;6.10;99.90;5.50;99375;;;;561092;249;35381;-78
2023/01/14 00:59:22;;;;;;;3.33;1.70;;;6.10;99.90;5.60;99373;;;;562870;249;24087;-78
2023/01/14 01:01:51;;;;;;;2.87;1.50;;;6.10;99.90;5.60;99372;;;;562811;249;24139;-79
2023/01/14 01:04:17;;;;;;;1.27;1.17;;;6.20;99.90;5.60;99363;;;;563143;248;24104;-77
2023/01/14 01:06:46;;;;;;;3.60;0.90;;;6.20;99.90;5.70;99364;;;;571428;249;24089;-78
2023/01/14 01:09:14;;;;;;;2.93;1.03;;;6.20;99.90;5.70;99365;;;;566866;249;24082;-78
2023/01/14 01:11:42;;;;;;;1.83;1.30;;;6.20;99.90;5.70;99371;;;;566910;249;24082;-77
2023/01/14 01:14:13;;;;;;;7.67;0.93;;;6.20;99.90;5.70;99364;;;;563417;249;24119;-77
2023/01/14 01:16:38;;;;;;;3.67;1.33;;;6.30;99.90;5.70;99364;;;;566248;249;24107;-78
2023/01/14 01:19:06;;;;;;;0.97;0.93;;;6.20;99.90;5.70;99367;;;;566496;249;24104;-78
2023/01/14 01:21:34;;;;;;;1.40;1.13;;;6.20;99.90;5.70;99380;;;;563438;249;24106;-79
2023/01/14 01:24:02;;;;;;;4.07;1.27;;;6.20;99.90;5.70;99372;;;;563070;249;24113;-77
2023/01/14 01:26:30;;;;;;;1.27;1.17;;;6.30;99.90;5.70;99371;;;;566325;249;24103;-76
2023/01/14 01:28:58;;;;;;;2.67;1.40;;;6.20;99.90;5.70;99356;;;;565877;249;24101;-79
2023/01/14 01:31:27;;;;;;;2.30;0.97;;;6.30;99.90;5.70;99375;;;;574421;248;24086;-77
2023/01/14 01:33:55;;;;;;;1.13;0.90;;;6.30;99.90;5.70;99367;;;;570479;249;24102;-79
2023/01/14 01:36:22;;;;;;;2.30;1.30;;;6.30;99.90;5.80;99373;;;;574031;249;24094;-79
2023/01/14 01:38:54;;;;;;;3.40;1.20;;;6.30;99.90;5.70;99367;;;;565963;249;24189;-79
2023/01/14 01:41:21;;;;;;;4.33;1.43;;;6.30;99.90;5.80;99373;;;;565467;249;24107;-78
2023/01/14 01:43:58;;;;;;;1.57;0.90;;;6.30;99.90;5.80;99370;;;;565700;249;24121;-76
2023/01/14 01:46:26;;;;;;;1.20;1.00;;;6.30;99.90;5.80;99373;;;;565942;249;25148;-78
2023/01/14 01:48:54;;;;;;;1.73;1.10;;;6.30;99.90;5.80;99381;;;;566058;249;24133;-78
2023/01/14 01:51:22;;;;;;;3.57;1.20;;;6.30;99.90;5.80;99376;;;;562857;249;24084;-78
2023/01/14 01:53:50;;;;;;;1.27;0.83;;;6.30;99.90;5.70;99389;;;;565410;249;24270;-78
2023/01/14 01:56:20;;;;;;;4.97;1.20;;;6.30;99.90;5.70;99376;;;;565680;249;24115;-75
2023/01/14 01:58:51;;;;;;;1.83;1.30;;;6.20;99.90;5.50;99382;;;;569689;249;25147;-76
2023/01/14 02:01:16;;;;;;;1.20;1.17;;;6.10;99.90;5.50;99379;;;;562133;249;24111;-78
2023/01/14 02:03:45;;;;;;;2.93;1.37;;;6.00;99.90;5.50;99390;;;;565634;249;24095;-78
2023/01/14 02:06:13;;;;;;;4.57;1.37;;;6.00;99.90;5.40;99382;;;;565494;249;24101;-79
2023/01/14 02:08:41;;;;;;;5.63;1.63;;;5.90;99.90;5.30;99389;;;;562730;249;24158;-78
2023/01/14 02:11:45;;;;;;;1.23;1.03;;;5.90;99.90;5.20;99385;;;;565544;249;24099;-77
2023/01/14 02:14:21;;;;;;;2.83;1.80;;;5.80;99.90;5.10;99383;;;;565555;249;24105;-78
2023/01/14 02:17:07;;;;;;;2.83;1.53;;;5.70;99.90;5.00;99386;;;;562701;249;24162;-78
2023/01/14 02:19:38;;;;;;;1.57;0.90;;;5.60;99.90;4.90;99388;;;;563557;249;24122;-75
2023/01/14 02:22:27;;;;;;;2.33;1.30;;;5.50;99.90;4.80;99390;;;;562691;249;24101;-77
2023/01/14 02:25:38;;;;;;;1.53;0.90;;;5.40;99.90;4.70;99375;;;;575376;248;24164;-78
2023/01/14 02:28:31;;;;;;;4.13;1.17;;;5.20;99.90;4.60;99393;;;;563598;249;24090;-76
2023/01/14 02:31:04;;;;;;;0.87;0.80;;;5.20;99.90;4.60;99389;;;;566326;249;24125;-76
2023/01/14 02:33:43;;;;;;;2.73;1.10;;;5.10;99.90;4.50;99386;;;;566082;249;24108;-75
2023/01/14 02:36:51;;;;;;;1.77;1.00;;;5.10;99.90;4.50;99399;;;;574754;248;24121;-79
2023/01/14 02:39:22;;;;;;;1.77;1.40;;;5.00;99.90;4.40;99392;;;;566223;249;24101;-76
2023/01/14 02:44:38;;;;;;;1.83;1.10;;;4.90;99.90;4.40;99392;;;;566179;249;25166;-79
2023/01/14 02:47:06;;;;;;;7.90;0.83;;;4.90;99.90;4.30;99390;;;;566297;249;24116;-79
2023/01/14 02:49:34;;;;;;;0.80;0.80;;;4.90;99.90;4.30;99402;;;;565970;249;24108;-78
2023/01/14 02:52:02;;;;;;;4.23;1.27;;;4.90;99.90;4.30;99404;;;;566035;249;24185;-78
2023/01/14 02:54:30;;;;;;;1.40;1.30;;;4.80;99.90;4.30;99398;;;;565795;249;25133;-78
2023/01/14 02:57:00;;;;;;;1.30;1.00;;;4.90;99.90;4.30;99405;;;;566022;249;24129;-78
2023/01/14 02:59:41;;;;;;;1.40;1.30;;;4.90;99.90;4.40;99399;;;;565539;249;24124;-80
2023/01/14 03:02:27;;;;;;;0.83;0.83;;;4.90;99.90;4.50;99415;;;;565425;249;24114;-78
2023/01/14 03:05:28;;;;;;;2.00;1.13;;;5.00;99.90;4.60;99422;;;;565674;249;24187;-79
2023/01/14 03:07:59;;;;;;;6.87;1.62;;;5.10;99.90;4.70;99417;;;;557962;249;35267;-78
2023/01/14 03:10:36;;;;;;;7.37;1.80;;;5.20;99.90;4.80;99423;;;;564902;249;25163;-79
2023/01/14 03:13:25;;;;;;;2.73;1.10;;;5.30;99.90;4.90;99428;;;;565275;249;25439;-79
2023/01/14 03:15:56;;;;;;;6.23;1.30;;;5.40;99.90;4.90;99431;;;;565785;249;24122;-79
2023/01/14 03:18:44;;;;;;;3.13;0.90;;;5.50;99.90;5.00;99425;;;;566710;249;24111;-77
2023/01/14 03:21:24;;;;;;;5.30;1.27;;;5.50;99.90;5.00;99427;;;;562001;249;24164;-77
2023/01/14 03:24:09;;;;;;;2.67;1.43;;;5.50;99.90;5.00;99428;;;;565609;249;24137;-78
2023/01/14 03:26:37;;;;;;;2.87;1.00;;;5.50;99.90;4.90;99429;;;;558283;249;24113;-78
2023/01/14 03:29:05;;;;;;;1.27;1.17;;;5.50;99.90;4.90;99422;;;;575829;248;24114;-78
2023/01/14 03:31:33;;;;;;;4.87;1.27;;;5.50;99.90;4.90;99423;;;;566380;249;24085;-79
2023/01/14 03:34:01;;;;;;;1.30;1.20;;;5.50;99.90;5.00;99427;;;;566439;249;24108;-78
2023/01/14 03:36:30;;;;;;;2.97;1.10;;;5.50;99.90;5.00;99421;;;;566152;249;24140;-73
2023/01/14 03:39:13;;;;;;;2.90;0.83;;;5.50;99.90;5.00;99425;;;;566092;249;24100;-79
2023/01/14 03:44:33;;;;;;;3.13;1.13;;;5.60;99.90;5.10;99442;;;;575259;249;25139;-76
2023/01/14 03:47:01;;;;;;;6.23;1.33;;;5.60;99.90;5.20;99446;;;;562054;251;24123;-76
2023/01/14 03:49:32;;;;;;;5.03;0.87;;;5.70;99.90;5.30;99446;;;;562817;251;24186;-77
2023/01/14 03:52:00;;;;;;;1.03;1.03;;;5.80;99.90;5.30;99455;;;;552814;255;24170;-75
2023/01/14 03:54:28;;;;;;;2.17;1.40;;;5.80;99.90;5.40;99459;;;;562697;251;24144;-77
2023/01/14 03:57:21;;;;;;;1.27;0.90;;;5.90;99.90;5.40;99461;;;;565632;251;24136;-77
2023/01/14 03:59:56;;;;;;;6.30;1.40;;;5.90;99.90;5.50;99473;;;;571173;251;24130;-78
2023/01/14 04:02:28;;;;;;;1.87;1.10;;;6.00;99.90;5.50;99467;;;;570607;251;24119;-78
2023/01/14 04:04:51;;;;;;;1.10;1.10;;;6.00;99.90;5.50;99478;;;;556800;254;24129;-76
2023/01/14 04:07:24;;;;;;;1.40;1.03;;;6.10;99.90;5.60;99472;;;;560746;252;24172;-77
2023/01/14 04:09:48;;;;;;;2.83;1.20;;;6.10;99.90;5.60;99472;;;;551665;255;24177;-77
2023/01/14 04:12:16;;;;;;;1.63;1.03;;;6.10;99.90;5.60;99467;;;;552415;255;24153;-76
2023/01/14 04:17:31;;;;;;;0.80;0.70;;;6.10;99.90;5.60;99478;;;;560485;255;24161;-79
2023/01/14 04:19:58;;;;;;;3.33;1.07;;;6.20;99.90;5.60;99483;;;;551662;255;25211;-79
2023/01/14 04:22:27;;;;;;;4.33;1.40;;;6.20;99.90;5.70;99481;;;;562136;251;24174;-78
2023/01/14 04:24:54;;;;;;;0.80;0.80;;;6.10;99.90;5.70;99478;;;;572275;251;24238;-78
2023/01/14 04:27:25;;;;;;;1.40;1.13;;;6.20;99.90;5.70;99486;;;;562116;251;24117;-77
2023/01/14 04:29:50;;;;;;;1.10;1.00;;;6.20;99.90;5.70;99493;;;;551868;255;24143;-78
2023/01/14 04:32:18;;;;;;;1.20;0.80;;;6.30;99.90;5.80;99481;;;;560694;255;24193;-76
2023/01/14 04:34:46;;;;;;;1.17;1.10;;;6.30;99.90;5.80;99486;;;;565626;249;24112;-78
2023/01/14 04:37:14;;;;;;;1.20;1.10;;;6.30;99.90;5.80;99479;;;;565583;249;24123;-77
2023/01/14 04:39:42;;;;;;;0.83;0.83;;;6.40;99.90;5.90;99491;;;;566587;249;24133;-79
2023/01/14 04:42:28;;;;;;;3.70;1.37;;;6.40;99.90;5.90;99480;;;;566756;249;24145;-78
2023/01/14 04:44:56;;;;;;;0.70;0.70;;;6.40;99.90;5.80;99487;;;;566421;249;24119;-76
2023/01/14 04:47:27;;;;;;;2.30;1.07;;;6.40;99.90;5.80;99493;;;;566584;249;24130;-76
2023/01/14 04:49:55;;;;;;;1.70;0.93;;;6.40;99.90;5.80;99504;;;;566329;249;24111;-76
2023/01/14 04:52:19;;;;;;;0.93;0.93;;;6.30;99.90;5.80;99509;;;;566170;249;24091;-78
2023/01/14 04:54:47;;;;;;;4.40;1.50;;;6.30;99.90;5.80;99501;;;;575047;248;24073;-76
2023/01/14 04:57:16;;;;;;;0.83;0.83;;;6.30;99.90;5.80;99506;;;;566439;249;24094;-75
2023/01/14 04:59:44;;;;;;;1.13;1.00;;;6.30;99.90;5.80;99501;;;;565943;249;24175;-76
2023/01/14 05:02:12;;;;;;;2.53;0.60;;;6.30;99.90;5.70;99516;;;;566139;249;25166;-75
2023/01/14 05:04:40;;;;;;;0.70;0.70;;;6.30;99.90;5.70;99516;;;;566076;249;24086;-74
2023/01/14 05:07:08;;;;;;;0.70;0.70;;;6.30;99.90;5.70;99523;;;;566295;249;24086;-75
2023/01/14 05:09:36;;;;;;;1.53;0.63;;;6.20;99.90;5.60;99515;;;;566033;249;24089;-77
2023/01/14 05:12:04;;;;;;;0.90;0.90;;;6.20;99.90;5.60;99527;;;;565888;249;24129;-77
2023/01/14 05:14:33;;;;;;;1.67;1.00;;;6.10;99.90;5.60;99527;;;;565975;249;24107;-79
2023/01/14 05:17:01;;;;;;;1.23;1.00;;;6.10;99.90;5.50;99526;;;;565574;249;24087;-77
2023/01/14 05:19:28;;;;;;;0.70;0.70;;;6.00;99.90;5.40;99528;;;;565699;249;24106;-76
2023/01/14 05:21:56;;;;;;;2.13;1.07;;;5.90;99.90;5.30;99527;;;;565617;249;24095;-76
2023/01/14 05:24:24;;;;;;;2.23;1.00;;;5.90;99.90;5.20;99534;;;;565756;249;24134;-78
2023/01/14 05:26:53;;;;;;;2.10;0.60;;;5.70;99.90;5.20;99543;;;;565555;249;24107;-78
2023/01/14 05:29:21;;;;;;;2.83;0.70;;;5.70;99.90;5.20;99561;;;;565498;249;24092;-80
2023/01/14 05:31:50;;;;;;;0.77;0.77;;;5.70;99.90;5.20;99556;;;;565765;249;24103;-78
2023/01/14 05:34:18;;;;;;;0.57;0.53;;;5.70;99.90;5.10;99548;;;;565581;249;24135;-79
2023/01/14 05:36:45;;;;;;;0.57;0.57;;;5.70;99.90;5.10;99561;;;;565663;249;24102;-77
2023/01/14 05:39:13;;;;;;;2.63;0.77;;;5.70;99.90;5.00;99565;;;;565591;249;24108;-78
2023/01/14 05:45:37;;;;;;;1.83;0.93;;;5.60;99.90;5.00;99570;;;;566006;249;24183;-78
2023/01/14 05:46:56;;;;;;;7.30;0.70;;;5.50;99.90;4.90;99582;;;;562825;249;24084;-75
2023/01/14 05:49:24;;;;;;;1.53;0.70;;;5.50;99.90;4.90;99583;;;;565808;249;26273;-77
2023/01/14 05:51:52;;;;;;;0.87;0.60;;;5.40;99.90;4.90;99597;;;;566635;249;24106;-80
2023/01/14 05:54:20;;;;;;;3.50;0.73;;;5.40;99.90;4.80;99598;;;;566730;249;24097;-77
2023/01/14 05:56:47;;;;;;;2.77;0.70;;;5.30;99.90;4.80;99598;;;;566509;249;24133;-78
2023/01/14 05:59:15;;;;;;;1.50;0.70;;;5.30;99.90;4.80;99604;;;;566504;249;24118;-77
2023/01/14 06:07:15;;;;;;;1.47;0.90;;;5.30;99.90;4.80;99607;;;;575089;249;24142;-77
2023/01/14 06:09:43;;;;;;;1.03;0.60;;;5.30;99.90;4.80;99613;;;;565967;249;24119;-80
2023/01/14 06:12:31;;;;;;;3.03;0.80;;;5.30;99.90;4.70;99622;;;;565796;249;24087;-80
2023/01/14 06:14:40;;;;;;;1.13;0.80;;;5.20;99.90;4.70;99624;;;;564046;249;24096;-79
2023/01/14 06:17:09;;;;;;;0.20;0.20;;;5.20;99.90;4.60;99637;;;;565844;249;24093;-78
2023/01/14 06:19:36;;;;;;;1.23;0.50;;;5.20;99.90;4.60;99638;;;;565932;249;24129;-79
2023/01/14 06:22:03;;;;;;;1.20;0.67;;;5.20;99.90;4.50;99644;;;;565864;249;24111;-76
2023/01/14 06:24:31;;;;;;;0.67;0.67;;;5.10;99.90;4.50;99648;;;;565758;249;24090;-76
2023/01/14 06:27:00;;;;;;;3.80;0.80;;;5.10;99.90;4.60;99648;;;;574414;248;24100;-78
2023/01/14 06:29:28;;;;;;;0.80;0.70;;;5.10;99.90;4.80;99651;;;;565528;249;24083;-79
2023/01/14 06:31:57;;;;;;;2.27;0.77;;;5.40;99.90;4.90;99651;;;;565806;249;24130;-79
2023/01/14 06:34:24;;;;;;;1.43;1.07;;;5.40;99.90;4.90;99659;;;;565654;249;24106;-80
2023/01/14 06:36:53;;;;;;;1.23;0.77;;;5.50;99.90;4.90;99663;;;;565806;249;24102;-79
2023/01/14 06:39:21;;;;;;;3.97;1.00;;;5.50;99.90;5.00;99670;;;;565648;249;24098;-79
2023/01/14 06:41:49;;;;;;;2.33;0.90;;;5.50;99.90;5.00;99670;;;;565539;249;24098;-79
2023/01/14 06:44:17;;;;;;;4.63;1.00;;;5.60;99.90;5.10;99669;;;;565653;249;26445;-75
2023/01/14 06:46:46;;;;;;;1.20;0.77;;;5.60;99.90;5.10;99662;;;;565619;249;24128;-80
2023/01/14 06:49:13;;;;;;;3.40;0.90;;;5.60;99.90;5.10;99664;;;;565961;249;24086;-78
2023/01/14 06:51:41;;;;;;;2.03;0.83;;;5.70;99.90;5.10;99674;;;;565933;249;24128;-78
2023/01/14 06:54:10;;;;;;;1.23;1.00;;;5.70;99.90;5.10;99676;;;;574583;248;24148;-79
2023/01/14 06:56:37;;;;;;;0.77;0.77;;;5.60;99.90;5.00;99673;;;;565918;249;24129;-77
2023/01/14 06:59:06;;;;;;;5.55;1.42;;;5.60;99.90;5.00;99683;;;;557614;249;35173;-80
2023/01/14 07:01:34;;;;;;;1.33;1.00;;;5.50;99.90;5.10;99689;;;;565661;249;24113;-78
2023/01/14 07:04:02;;;;;;;0.60;0.60;;;5.60;99.90;5.10;99690;;;;567039;249;24090;-78
2023/01/14 07:06:29;;;;;;;1.20;1.00;;;5.70;99.90;5.20;99696;;;;566787;249;25138;-78
2023/01/14 07:08:57;;;;;;;2.37;0.93;;;5.70;99.90;5.30;99700;;;;566412;249;24090;-78
2023/01/14 07:11:25;;;;;;;1.30;1.00;;;5.80;99.90;5.40;99698;;;;566322;249;24191;-79
2023/01/14 07:13:53;;;;;;;8.43;1.07;;;5.90;99.90;5.40;99709;;;;566310;249;24092;-76
2023/01/14 07:16:21;;;;;;;1.30;1.03;;;5.90;99.90;5.50;99707;;;;566353;249;24131;-76
2023/01/14 07:18:49;;;;;;;4.00;1.23;;;6.00;99.90;5.50;99711;;;;574960;248;24123;-76
2023/01/14 07:21:17;;;;;;;2.87;1.40;;;6.00;99.90;5.50;99716;;;;566066;249;24208;-78
2023/01/14 07:23:45;;;;;;;0.90;0.90;;;6.10;99.90;5.60;99726;;;;565868;249;24085;-77
2023/01/14 07:26:13;;;;;;;6.30;1.27;;;6.10;99.90;5.70;99733;;;;565925;249;24125;-79
2023/01/14 07:28:41;;;;;;;3.70;1.37;;;6.20;99.90;5.80;99737;;;;565945;249;24094;-79
2023/01/14 07:31:11;;;;;;;3.13;1.10;;;6.30;99.90;5.90;99740;;;;565973;249;24093;-78
2023/01/14 07:33:39;;;;;;;2.10;0.90;;;6.40;99.90;5.90;99745;;;;552144;255;24187;-76
2023/01/14 07:36:05;;;;;;;0.77;0.77;;;6.50;99.90;6.00;99736;;;;560408;253;24155;-77
2023/01/14 07:38:33;;;;;;;1.77;1.10;;;6.50;99.90;6.00;99740;;;;566439;249;24098;-77
2023/01/14 07:41:01;;;;;;;2.60;0.90;;;6.50;99.90;5.90;99751;;;;574628;248;24087;-78
2023/01/14 07:43:29;;;;;;;5.63;1.43;;;6.40;99.90;6.00;99742;;;;565920;249;24236;-76
2023/01/14 07:46:00;;;;;;;2.07;0.90;;;6.50;99.90;6.10;99746;;;;574159;247;24181;-78
2023/01/14 07:48:32;;;;;;;1.43;1.10;;;6.60;99.90;6.10;99749;;;;558076;242;24258;-83
2023/01/14 07:50:57;;;;;;;1.20;0.90;;;6.60;99.90;6.10;99756;;;;550088;261;24165;-82
2023/01/14 07:53:25;;;;;;;0.50;0.50;;;6.60;99.90;6.00;99762;;;;541927;261;24142;-83
2023/01/14 07:55:52;;;;;;;1.73;1.00;;;6.50;99.90;5.90;99768;;;;547572;259;24163;-82
2023/01/14 07:58:24;;;;;;;4.23;1.73;;;6.40;99.90;5.90;99769;;;;557450;256;24143;-83
2023/01/14 08:00:55;;;;;;;3.20;2.43;;;6.40;99.90;6.00;99769;;;;562142;251;24113;-83
2023/01/14 08:03:20;;;;;;;1.80;1.13;;;6.40;99.90;6.10;99761;;;;560218;250;24092;-82
2023/01/14 08:05:51;;;;;;;2.87;1.17;;;6.70;99.90;6.20;99766;;;;560248;251;24079;-82
2023/01/14 08:08:16;;;;;;;3.07;1.20;;;6.70;99.90;6.30;99776;;;;552094;256;24134;-82
2023/01/14 08:10:45;;;;;;;3.03;1.60;;;6.80;99.90;6.30;99774;;;;552029;256;24113;-82
2023/01/14 08:13:15;;;;;;;2.63;1.97;;;6.80;99.90;6.30;99777;;;;552347;256;24097;-83
2023/01/14 08:15:41;;;;;;;2.83;1.70;;;6.80;99.90;6.40;99779;;;;567382;251;24087;-83
2023/01/14 08:18:09;;;;;;;5.77;1.37;;;6.90;99.90;6.50;99782;;;;552782;255;24162;-83
2023/01/14 08:20:36;;;;;;;5.13;1.03;;;7.00;99.90;6.50;99782;;;;571558;251;24093;-82
2023/01/14 08:23:04;;;;;;;5.37;1.37;;;7.00;99.90;6.60;99789;;;;552762;256;24110;-83
2023/01/14 08:25:32;;;;;;;1.73;1.13;;;7.10;99.90;6.70;99792;;;;552605;256;24104;-84
2023/01/14 08:28:00;;;;;;;8.03;2.00;;;7.20;99.90;6.80;99790;;;;552480;256;24096;-83
2023/01/14 08:30:28;;;;;;;1.27;1.17;;;7.20;99.90;6.80;99795;;;;552431;256;24117;-83
2023/01/14 08:32:56;;;;;;;1.43;1.33;;;7.30;99.90;6.90;99799;;;;552403;256;24114;-83
2023/01/14 08:35:27;;;;;;;2.87;1.10;;;7.40;99.90;7.00;99795;;;;552197;256;24101;-82
2023/01/14 08:37:52;;;;;;;3.20;1.40;;;7.50;99.90;7.20;99796;;;;571982;249;24091;-83
2023/01/14 08:40:20;;;;;;;2.07;1.30;;;7.70;99.90;7.30;99800;;;;552244;256;24116;-83
2023/01/14 08:42:48;;;;;;;4.07;1.60;;;7.70;99.90;7.20;99803;;;;552606;256;24101;-82
2023/01/14 08:45:16;;;;;;;6.30;1.50;;;7.70;99.90;7.10;99818;;;;560322;255;24133;-83
2023/01/14 08:47:44;;;;;;;4.83;1.73;;;7.60;99.90;6.90;99824;;;;552241;256;24097;-83
2023/01/14 08:50:12;;;;;;;1.87;1.63;;;7.50;99.90;6.90;99832;;;;552235;256;24170;-82
2023/01/14 08:52:40;;;;;;;3.07;1.50;;;7.40;99.90;6.90;99828;;;;552358;256;24162;-82
2023/01/14 08:55:12;;;;;;;3.20;1.53;;;7.40;99.90;6.90;99830;;;;552321;256;24117;-83
2023/01/14 08:57:40;;;;;;;4.30;1.80;;;7.40;99.90;6.80;99831;;;;561592;251;24094;-81
2023/01/14 09:00:07;;;;;;;4.90;1.70;;;7.30;99.90;6.70;99825;;;;551873;256;24131;-82
2023/01/14 09:02:32;;;;;;;3.17;1.40;;;7.20;99.90;6.60;99828;;;;562327;251;24081;-83
2023/01/14 09:05:01;;;;;;;5.13;2.13;;;7.10;99.90;6.50;99830;;;;551959;256;24163;-83
2023/01/14 09:18:31;;;;;;;2.73;1.90;;;7.10;99.90;6.60;99851;;;;560127;254;24167;-82
2023/01/14 09:21:00;;;;;;;2.07;1.33;;;7.10;99.90;6.60;99849;;;;552054;256;24121;-82
2023/01/14 09:23:32;;;;;;;5.33;1.87;;;7.10;99.90;6.60;99856;;;;551962;256;24125;-81
2023/01/14 09:25:56;;;;;;;2.80;1.87;;;7.10;99.90;6.60;99851;;;;555889;255;24110;-82
2023/01/14 09:28:24;;;;;;;7.60;1.77;;;7.10;99.90;6.70;99857;;;;553009;255;24099;-83
2023/01/14 09:30:52;;;;;;;1.73;1.63;;;7.10;99.90;6.80;99853;;;;552945;255;24114;-83
2023/01/14 09:33:19;;;;;;;2.70;1.80;;;7.20;99.90;7.00;99871;;;;552774;255;24241;-83
2023/01/14 09:35:47;;;;;;;4.30;1.83;;;7.40;99.90;7.30;99870;;;;552390;255;24124;-83
2023/01/14 09:38:16;;;;;;;4.03;1.80;;;8.00;99.90;7.60;99874;;;;552496;256;24126;-81
2023/01/14 09:40:44;;;;;;;5.90;2.10;;;8.00;99.90;7.80;99864;;;;552376;256;24105;-82
2023/01/14 09:43:19;;;;;;;7.03;2.60;;;8.50;99.90;8.00;99863;;;;547704;255;35449;-82
2023/01/14 09:45:47;;;;;;;9.40;2.90;;;8.40;99.90;8.30;99871;;;;565843;251;35293;-83
2023/01/14 09:48:15;;;;;;;5.90;2.10;;;9.00;99.90;8.60;99869;;;;570178;251;24110;-84
2023/01/14 09:50:49;;;;;;;3.03;1.97;;;9.00;99.90;8.80;99869;;;;562421;251;24115;-84
2023/01/14 09:53:45;;;;;;;5.00;1.77;;;9.20;99.90;8.80;99859;;;;552590;256;25162;-83
2023/01/14 09:56:40;;;;;;;4.83;1.87;;;9.30;99.90;8.80;99865;;;;560403;251;24087;-83
2023/01/14 09:59:32;;;;;;;1.77;1.63;;;9.30;99.90;8.60;99864;;;;552287;256;24129;-83
2023/01/14 10:02:00;;;;;;;3.63;1.47;;;9.20;99.90;8.20;99862;;;;560545;251;24129;-83
2023/01/14 10:04:46;;;;;;;5.60;1.07;;;8.90;99.90;8.10;99864;;;;564600;251;24112;-82
2023/01/14 10:07:17;;;;;;;1.30;1.20;;;8.70;99.90;8.10;99867;;;;551990;256;24105;-83
2023/01/14 10:09:48;;;;;;;2.20;1.40;;;8.60;99.90;8.00;99865;;;;570521;251;24131;-83
2023/01/14 10:12:31;;;;;;;3.07;1.20;;;8.50;99.90;8.10;99874;;;;558161;256;24165;-83
2023/01/14 10:15:17;;;;;;;1.77;1.10;;;8.60;99.90;8.30;99877;;;;559927;251;24106;-82
2023/01/14 10:17:44;;;;;;;3.77;1.47;;;8.70;99.90;8.30;99876;;;;560496;256;24117;-84
2023/01/14 10:20:21;;;;;;;1.63;1.30;;;8.70;99.90;8.10;99874;;;;564122;251;24112;-83
2023/01/14 10:23:10;;;;;;;4.30;1.50;;;8.60;99.90;8.00;99872;;;;562473;251;24092;-84
2023/01/14 10:25:38;;;;;;;4.23;1.60;;;8.50;99.90;7.80;99856;;;;564967;251;24181;-82
2023/01/14 10:28:06;;;;;;;0.97;0.97;;;8.30;99.90;7.70;99871;;;;562544;251;24100;-83
2023/01/14 10:30:34;;;;;;;1.97;0.93;;;8.20;99.90;7.60;99864;;;;562818;251;24107;-82
2023/01/14 10:33:05;;;;;;;1.67;1.10;;;8.10;99.90;7.60;99869;;;;563355;251;24137;-80
2023/01/14 10:35:33;;;;;;;5.00;1.53;;;8.00;99.90;7.60;99868;;;;572143;251;24128;-82
2023/01/14 10:38:01;;;;;;;1.60;1.00;;;8.00;99.90;7.70;99881;;;;572362;250;24090;-83
2023/01/14 10:40:32;;;;;;;5.70;1.60;;;8.20;99.90;7.90;99880;;;;563343;251;24268;-84
2023/01/14 10:43:00;;;;;;;2.90;1.40;;;8.30;99.90;8.20;99875;;;;571194;251;24091;-83
2023/01/14 10:45:28;;;;;;;1.30;0.90;;;8.60;99.90;8.30;99874;;;;571432;251;24088;-83
2023/01/14 10:48:02;;;;;;;4.13;1.90;;;8.70;99.90;8.50;99868;;;;552211;256;24160;-83
2023/01/14 10:50:26;;;;;;;1.57;1.13;;;8.90;99.90;8.70;99866;;;;570966;251;24136;-83
2023/01/14 10:52:54;;;;;;;3.33;1.27;;;9.10;99.90;8.70;99876;;;;571036;251;24127;-83
2023/01/14 10:55:24;;;;;;;3.10;1.40;;;9.20;99.90;8.70;99875;;;;560796;251;24121;-83
2023/01/14 10:58:02;;;;;;;3.43;1.50;;;9.20;99.90;8.70;99872;;;;561704;251;24157;-82
2023/01/14 11:00:45;;;;;;;5.13;1.47;;;9.20;99.90;8.70;99875;;;;564866;251;24120;-83
2023/01/14 11:03:24;;;;;;;2.03;1.03;;;9.20;99.90;8.70;99877;;;;552036;256;24148;-82
2023/01/14 11:06:07;;;;;;;3.20;1.63;;;9.20;99.90;8.80;99877;;;;562595;251;24140;-82
2023/01/14 11:08:47;;;;;;;1.97;1.20;;;9.30;99.90;8.90;99873;;;;562179;251;24106;-82
2023/01/14 11:11:22;;;;;;;2.07;1.20;;;9.30;99.90;8.90;99870;;;;552078;256;24133;-83
2023/01/14 11:13:50;;;;;;;2.47;1.07;;;9.40;99.90;9.00;99865;;;;566078;251;24109;-83
2023/01/14 11:16:25;;;;;;;2.33;1.40;;;9.50;99.90;9.00;99860;;;;562069;251;24143;-83
2023/01/14 11:18:56;;;;;;;3.00;1.13;;;9.50;99.90;9.00;99852;;;;560122;250;24166;-83
2023/01/14 11:21:25;;;;;;;4.70;1.67;;;9.50;99.90;9.00;99870;;;;565281;251;46051;-83
2023/01/14 11:24:08;;;;;;;2.80;1.20;;;9.40;99.90;9.00;99861;;;;570208;251;24122;-82
2023/01/14 11:26:33;;;;;;;1.73;1.17;;;9.50;99.90;9.10;99869;;;;562002;251;24087;-82
2023/01/14 11:29:16;;;;;;;2.50;1.63;;;9.50;99.90;9.10;99868;;;;570274;251;24140;-82
2023/01/14 11:31:47;;;;;;;2.60;1.87;;;9.60;99.90;9.10;99868;;;;570294;251;24112;-82
2023/01/14 11:34:23;;;;;;;1.20;1.10;;;9.60;99.90;9.10;99867;;;;561106;251;24095;-83
2023/01/14 11:36:53;;;;;;;1.33;1.00;;;9.60;99.90;9.10;99877;;;;556334;256;24121;-82
2023/01/14 11:39:25;;;;;;;4.50;1.60;;;9.60;99.90;8.90;99875;;;;560102;250;24100;-82
2023/01/14 11:41:50;;;;;;;2.40;1.50;;;9.30;99.90;8.70;99875;;;;551842;256;24203;-83
2023/01/14 11:44:22;;;;;;;6.43;1.63;;;9.30;99.90;8.60;99872;;;;551735;256;24187;-83
2023/01/14 11:47:16;;;;;;;2.93;1.60;;;9.10;99.90;8.50;99870;;;;555215;256;24125;-82
2023/01/14 11:49:44;;;;;;;3.40;1.50;;;9.00;99.90;8.50;99865;;;;563763;253;24159;-83
2023/01/14 11:52:17;;;;;;;2.60;1.10;;;8.90;99.90;8.50;99861;;;;557461;252;24181;-83
2023/01/14 11:54:47;;;;;;;5.17;1.83;;;9.00;99.90;8.30;99875;;;;559435;252;24152;-82
2023/01/14 11:57:16;;;;;;;2.47;1.33;;;8.80;99.90;8.10;99876;;;;561854;251;24092;-82
2023/01/14 11:59:48;;;;;;;2.57;1.17;;;8.30;99.90;7.80;99885;;;;562548;251;24104;-83
2023/01/14 12:02:28;;;;;;;3.33;1.30;;;8.30;99.90;7.60;99878;;;;570940;251;24133;-82
2023/01/14 12:05:06;;;;;;;4.33;1.60;;;8.00;99.90;7.60;99881;;;;560353;256;24109;-81
2023/01/14 12:07:37;;;;;;;1.40;1.30;;;8.00;99.90;7.50;99875;;;;561918;251;24102;-81
2023/01/14 12:10:13;;;;;;;4.20;1.60;;;8.00;99.90;7.50;99879;;;;570689;251;24175;-82
2023/01/14 12:18:48;;;;;;;3.20;1.43;;;7.80;99.90;7.20;99871;;;;559051;255;24141;-83
2023/01/14 12:21:16;;;;;;;1.73;1.13;;;7.70;99.90;7.10;99866;;;;562615;255;24132;-81
2023/01/14 12:23:44;;;;;;;1.70;1.57;;;7.60;99.90;7.00;99869;;;;571712;250;24076;-83
2023/01/14 12:26:20;;;;;;;1.43;1.20;;;7.50;99.90;6.90;99871;;;;570131;251;24136;-82